sensor_id;sensor_type;location;lat;lon;timestamp;temperature;humidity
27306;DHT22;14792;50.886;6.468;2022-12-29T00:01:00;11.80;99.90
27306;DHT22;14792;50.886;6.468;2022-12-29T00:04:01;11.80;99.90
27306;DHT22;14792;50.886;6.468;2022-12-29T00:07:03;11.80;99.90
27306;DHT22;14792;50.886;6.468;2022-12-29T00:10:04;11.80;99.90
27306;DHT22;14792;50.886;6.468;2022-12-29T00:13:06;11.80;99.90
27306;DHT22;14792;50.886;6.468;2022-12-29T00:16:26;11.80;99.90
27306;DHT22;14792;50.886;6.468;2022-12-29T00:19:27;11.80;99.90
27306;DHT22;14792;50.886;6.468;2022-12-29T00:22:47;11.80;99.90
27306;DHT22;14792;50.886;6.468;2022-12-29T00:26:13;11.80;99.90
27306;DHT22;14792;50.886;6.468;2022-12-29T00:29:32;11.80;99.90
27306;DHT22;14792;50.886;6.468;2022-12-29T00:32:51;11.90;99.90
27306;DHT22;14792;50.886;6.468;2022-12-29T00:36:27;11.90;99.90
27306;DHT22;14792;50.886;6.468;2022-12-29T00:39:26;12.00;99.90
27306;DHT22;14792;50.886;6.468;2022-12-29T00:42:46;11.90;99.90
27306;DHT22;14792;50.886;6.468;2022-12-29T00:46:05;11.90;99.90
27306;DHT22;14792;50.886;6.468;2022-12-29T00:49:07;11.90;99.90
27306;DHT22;14792;50.886;6.468;2022-12-29T00:52:27;11.80;99.90
27306;DHT22;14792;50.886;6.468;2022-12-29T00:55:28;11.80;99.90
27306;DHT22;14792;50.886;6.468;2022-12-29T00:58:30;11.60;99.90
27306;DHT22;14792;50.886;6.468;2022-12-29T01:01:32;11.60;99.90
27306;DHT22;14792;50.886;6.468;2022-12-29T01:04:33;11.50;99.90
27306;DHT22;14792;50.886;6.468;2022-12-29T01:07:35;11.50;99.90
27306;DHT22;14792;50.886;6.468;2022-12-29T01:10:36;11.60;99.90
27306;DHT22;14792;50.886;6.468;2022-12-29T01:13:38;11.60;99.90
27306;DHT22;14792;50.886;6.468;2022-12-29T01:16:39;11.70;99.90
27306;DHT22;14792;50.886;6.468;2022-12-29T01:19:41;11.70;99.90
27306;DHT22;14792;50.886;6.468;2022-12-29T01:22:42;11.80;99.90
27306;DHT22;14792;50.886;6.468;2022-12-29T01:25:44;11.80;99.90
27306;DHT22;14792;50.886;6.468;2022-12-29T01:28:46;11.80;99.90
27306;DHT22;14792;50.886;6.468;2022-12-29T01:31:47;11.80;99.90
27306;DHT22;14792;50.886;6.468;2022-12-29T01:34:49;11.80;99.90
27306;DHT22;14792;50.886;6.468;2022-12-29T01:37:50;11.80;99.90
27306;DHT22;14792;50.886;6.468;2022-12-29T01:40:52;11.70;99.90
27306;DHT22;14792;50.886;6.468;2022-12-29T01:43:55;11.70;99.90
27306;DHT22;14792;50.886;6.468;2022-12-29T01:46:58;11.80;99.90
27306;DHT22;14792;50.886;6.468;2022-12-29T01:50:04;11.80;99.90
27306;DHT22;14792;50.886;6.468;2022-12-29T01:53:02;11.80;99.90
27306;DHT22;14792;50.886;6.468;2022-12-29T01:56:04;11.70;99.90
27306;DHT22;14792;50.886;6.468;2022-12-29T01:59:05;11.80;99.90
27306;DHT22;14792;50.886;6.468;2022-12-29T02:02:06;11.80;99.90
27306;DHT22;14792;50.886;6.468;2022-12-29T02:05:11;11.70;99.90
27306;DHT22;14792;50.886;6.468;2022-12-29T02:08:09;11.70;99.90
27306;DHT22;14792;50.886;6.468;2022-12-29T02:11:11;11.80;99.90
27306;DHT22;14792;50.886;6.468;2022-12-29T02:14:12;11.70;99.90
27306;DHT22;14792;50.886;6.468;2022-12-29T02:24:00;11.80;99.90
27306;DHT22;14792;50.886;6.468;2022-12-29T02:27:01;11.80;99.90
27306;DHT22;14792;50.886;6.468;2022-12-29T02:30:12;11.90;99.90
27306;DHT22;14792;50.886;6.468;2022-12-29T02:39:45;11.90;99.90
27306;DHT22;14792;50.886;6.468;2022-12-29T02:42:51;11.90;99.90
27306;DHT22;14792;50.886;6.468;2022-12-29T02:45:58;11.90;99.90
27306;DHT22;14792;50.886;6.468;2022-12-29T02:49:10;12.00;99.90
27306;DHT22;14792;50.886;6.468;2022-12-29T02:52:22;12.00;99.90
27306;DHT22;14792;50.886;6.468;2022-12-29T02:55:22;12.00;99.90
27306;DHT22;14792;50.886;6.468;2022-12-29T02:58:23;12.10;99.90
27306;DHT22;14792;50.886;6.468;2022-12-29T03:01:50;12.10;99.90
27306;DHT22;14792;50.886;6.468;2022-12-29T03:11:09;12.00;99.90
27306;DHT22;14792;50.886;6.468;2022-12-29T03:14:52;11.80;99.90
27306;DHT22;14792;50.886;6.468;2022-12-29T03:18:26;11.80;99.90
27306;DHT22;14792;50.886;6.468;2022-12-29T03:24:31;12.00;99.90
27306;DHT22;14792;50.886;6.468;2022-12-29T03:27:33;12.00;99.90
27306;DHT22;14792;50.886;6.468;2022-12-29T03:30:33;12.10;99.90
27306;DHT22;14792;50.886;6.468;2022-12-29T03:33:35;12.10;99.90
27306;DHT22;14792;50.886;6.468;2022-12-29T03:36:39;12.10;99.90
27306;DHT22;14792;50.886;6.468;2022-12-29T03:39:38;12.00;99.90
27306;DHT22;14792;50.886;6.468;2022-12-29T03:42:40;11.90;99.90
27306;DHT22;14792;50.886;6.468;2022-12-29T03:45:41;11.80;99.90
27306;DHT22;14792;50.886;6.468;2022-12-29T03:48:43;12.00;99.90
27306;DHT22;14792;50.886;6.468;2022-12-29T03:51:44;12.00;99.90
27306;DHT22;14792;50.886;6.468;2022-12-29T03:54:46;12.10;99.90
27306;DHT22;14792;50.886;6.468;2022-12-29T03:57:48;12.20;99.90
27306;DHT22;14792;50.886;6.468;2022-12-29T04:00:49;12.00;99.90
27306;DHT22;14792;50.886;6.468;2022-12-29T04:03:51;12.00;99.90
27306;DHT22;14792;50.886;6.468;2022-12-29T04:06:53;12.10;99.90
27306;DHT22;14792;50.886;6.468;2022-12-29T04:09:55;12.00;99.90
27306;DHT22;14792;50.886;6.468;2022-12-29T04:12:56;11.90;99.90
27306;DHT22;14792;50.886;6.468;2022-12-29T04:15:58;12.10;99.90
27306;DHT22;14792;50.886;6.468;2022-12-29T04:18:59;12.00;99.90
27306;DHT22;14792;50.886;6.468;2022-12-29T04:22:01;12.10;99.90
27306;DHT22;14792;50.886;6.468;2022-12-29T04:25:02;12.00;99.90
27306;DHT22;14792;50.886;6.468;2022-12-29T04:28:04;12.00;99.90
27306;DHT22;14792;50.886;6.468;2022-12-29T04:31:06;12.10;99.90
27306;DHT22;14792;50.886;6.468;2022-12-29T04:34:07;12.20;99.90
27306;DHT22;14792;50.886;6.468;2022-12-29T04:37:09;12.20;99.90
27306;DHT22;14792;50.886;6.468;2022-12-29T04:40:10;12.10;99.90
27306;DHT22;14792;50.886;6.468;2022-12-29T04:43:12;12.10;99.90
27306;DHT22;14792;50.886;6.468;2022-12-29T04:46:14;12.10;99.90
27306;DHT22;14792;50.886;6.468;2022-12-29T04:49:15;12.20;99.90
27306;DHT22;14792;50.886;6.468;2022-12-29T04:52:17;12.10;99.90
27306;DHT22;14792;50.886;6.468;2022-12-29T04:55:18;12.00;99.90
27306;DHT22;14792;50.886;6.468;2022-12-29T04:58:20;12.10;99.90
27306;DHT22;14792;50.886;6.468;2022-12-29T05:01:22;12.10;99.90
27306;DHT22;14792;50.886;6.468;2022-12-29T05:04:23;12.10;99.90
27306;DHT22;14792;50.886;6.468;2022-12-29T05:07:26;12.10;99.90
27306;DHT22;14792;50.886;6.468;2022-12-29T05:10:27;12.10;99.90
27306;DHT22;14792;50.886;6.468;2022-12-29T05:13:29;12.00;99.90
27306;DHT22;14792;50.886;6.468;2022-12-29T05:16:31;12.00;99.90
27306;DHT22;14792;50.886;6.468;2022-12-29T05:19:32;12.10;99.90
27306;DHT22;14792;50.886;6.468;2022-12-29T05:22:34;12.10;99.90
27306;DHT22;14792;50.886;6.468;2022-12-29T05:25:35;12.00;99.90
27306;DHT22;14792;50.886;6.468;2022-12-29T05:28:37;11.90;99.90
27306;DHT22;14792;50.886;6.468;2022-12-29T05:31:39;11.80;99.90
27306;DHT22;14792;50.886;6.468;2022-12-29T05:34:40;11.90;99.90
27306;DHT22;14792;50.886;6.468;2022-12-29T05:37:42;11.90;99.90
27306;DHT22;14792;50.886;6.468;2022-12-29T05:40:43;11.90;99.90
27306;DHT22;14792;50.886;6.468;2022-12-29T05:43:45;11.80;99.90
27306;DHT22;14792;50.886;6.468;2022-12-29T05:46:47;11.90;99.90
27306;DHT22;14792;50.886;6.468;2022-12-29T05:49:48;11.90;99.90
27306;DHT22;14792;50.886;6.468;2022-12-29T05:52:50;11.80;99.90
27306;DHT22;14792;50.886;6.468;2022-12-29T05:55:51;11.80;99.90
27306;DHT22;14792;50.886;6.468;2022-12-29T05:58:53;11.70;99.90
27306;DHT22;14792;50.886;6.468;2022-12-29T06:01:54;11.70;99.90
27306;DHT22;14792;50.886;6.468;2022-12-29T06:04:57;11.80;99.90
27306;DHT22;14792;50.886;6.468;2022-12-29T06:07:58;11.70;99.90
27306;DHT22;14792;50.886;6.468;2022-12-29T06:11:00;11.60;99.90
27306;DHT22;14792;50.886;6.468;2022-12-29T06:14:01;11.60;99.90
27306;DHT22;14792;50.886;6.468;2022-12-29T06:17:03;11.60;99.90
27306;DHT22;14792;50.886;6.468;2022-12-29T06:20:05;11.50;99.90
27306;DHT22;14792;50.886;6.468;2022-12-29T06:23:06;11.40;99.90
27306;DHT22;14792;50.886;6.468;2022-12-29T06:26:08;11.50;99.90
27306;DHT22;14792;50.886;6.468;2022-12-29T06:29:09;11.50;99.90
27306;DHT22;14792;50.886;6.468;2022-12-29T06:32:11;11.60;99.90
27306;DHT22;14792;50.886;6.468;2022-12-29T06:35:13;11.50;99.90
27306;DHT22;14792;50.886;6.468;2022-12-29T06:38:14;11.50;99.90
27306;DHT22;14792;50.886;6.468;2022-12-29T06:41:16;11.40;99.90
27306;DHT22;14792;50.886;6.468;2022-12-29T06:44:17;11.50;99.90
27306;DHT22;14792;50.886;6.468;2022-12-29T06:47:19;11.50;99.90
27306;DHT22;14792;50.886;6.468;2022-12-29T06:50:20;11.50;99.90
27306;DHT22;14792;50.886;6.468;2022-12-29T06:53:22;11.50;99.90
27306;DHT22;14792;50.886;6.468;2022-12-29T06:56:25;11.50;99.90
27306;DHT22;14792;50.886;6.468;2022-12-29T06:59:27;11.50;99.90
27306;DHT22;14792;50.886;6.468;2022-12-29T07:02:29;11.40;99.90
27306;DHT22;14792;50.886;6.468;2022-12-29T07:05:30;11.40;99.90
27306;DHT22;14792;50.886;6.468;2022-12-29T07:08:32;11.40;99.90
27306;DHT22;14792;50.886;6.468;2022-12-29T07:11:34;11.40;99.90
27306;DHT22;14792;50.886;6.468;2022-12-29T07:14:35;11.40;99.90
27306;DHT22;14792;50.886;6.468;2022-12-29T07:17:37;11.40;99.90
27306;DHT22;14792;50.886;6.468;2022-12-29T07:20:38;11.40;99.90
27306;DHT22;14792;50.886;6.468;2022-12-29T07:23:40;11.40;99.90
27306;DHT22;14792;50.886;6.468;2022-12-29T07:26:41;11.30;99.90
27306;DHT22;14792;50.886;6.468;2022-12-29T07:29:43;11.30;99.90
27306;DHT22;14792;50.886;6.468;2022-12-29T07:32:45;11.20;99.90
27306;DHT22;14792;50.886;6.468;2022-12-29T07:35:46;11.20;99.90
27306;DHT22;14792;50.886;6.468;2022-12-29T07:38:48;11.20;99.90
27306;DHT22;14792;50.886;6.468;2022-12-29T07:41:49;11.30;99.90
27306;DHT22;14792;50.886;6.468;2022-12-29T07:44:51;11.30;99.90
27306;DHT22;14792;50.886;6.468;2022-12-29T07:47:52;11.10;99.90
27306;DHT22;14792;50.886;6.468;2022-12-29T07:50:54;11.20;99.90
27306;DHT22;14792;50.886;6.468;2022-12-29T07:53:56;11.20;99.90
27306;DHT22;14792;50.886;6.468;2022-12-29T07:56:57;11.30;99.90
27306;DHT22;14792;50.886;6.468;2022-12-29T07:59:59;11.20;99.90
27306;DHT22;14792;50.886;6.468;2022-12-29T08:03:01;11.20;99.90
27306;DHT22;14792;50.886;6.468;2022-12-29T08:06:02;11.00;99.90
27306;DHT22;14792;50.886;6.468;2022-12-29T08:09:04;11.00;99.90
27306;DHT22;14792;50.886;6.468;2022-12-29T08:12:05;11.00;99.90
27306;DHT22;14792;50.886;6.468;2022-12-29T08:15:07;11.00;99.90
27306;DHT22;14792;50.886;6.468;2022-12-29T08:18:09;11.10;99.90
27306;DHT22;14792;50.886;6.468;2022-12-29T08:21:10;11.00;99.90
27306;DHT22;14792;50.886;6.468;2022-12-29T08:24:12;11.00;99.90
27306;DHT22;14792;50.886;6.468;2022-12-29T08:27:13;11.00;99.90
27306;DHT22;14792;50.886;6.468;2022-12-29T08:30:15;11.00;99.90
27306;DHT22;14792;50.886;6.468;2022-12-29T08:33:16;11.00;99.90
27306;DHT22;14792;50.886;6.468;2022-12-29T08:36:18;11.00;99.90
27306;DHT22;14792;50.886;6.468;2022-12-29T08:39:20;11.00;99.90
27306;DHT22;14792;50.886;6.468;2022-12-29T08:42:21;11.10;99.90
27306;DHT22;14792;50.886;6.468;2022-12-29T08:45:24;11.10;99.90
27306;DHT22;14792;50.886;6.468;2022-12-29T08:48:28;11.10;99.90
27306;DHT22;14792;50.886;6.468;2022-12-29T08:51:30;11.10;99.90
27306;DHT22;14792;50.886;6.468;2022-12-29T08:54:31;11.20;99.90
27306;DHT22;14792;50.886;6.468;2022-12-29T08:57:33;11.40;99.90
27306;DHT22;14792;50.886;6.468;2022-12-29T09:00:34;11.50;99.90
27306;DHT22;14792;50.886;6.468;2022-12-29T09:03:36;11.50;99.90
27306;DHT22;14792;50.886;6.468;2022-12-29T09:06:38;11.60;99.90
27306;DHT22;14792;50.886;6.468;2022-12-29T09:09:39;11.80;99.90
27306;DHT22;14792;50.886;6.468;2022-12-29T09:12:41;12.10;99.90
27306;DHT22;14792;50.886;6.468;2022-12-29T09:15:42;12.20;99.90
27306;DHT22;14792;50.886;6.468;2022-12-29T09:18:44;12.30;99.90
27306;DHT22;14792;50.886;6.468;2022-12-29T09:21:46;12.20;99.90
27306;DHT22;14792;50.886;6.468;2022-12-29T09:24:47;11.90;99.90
27306;DHT22;14792;50.886;6.468;2022-12-29T09:27:49;11.80;99.90
27306;DHT22;14792;50.886;6.468;2022-12-29T09:30:50;11.70;99.90
27306;DHT22;14792;50.886;6.468;2022-12-29T09:33:52;11.70;99.90
27306;DHT22;14792;50.886;6.468;2022-12-29T09:36:53;11.60;99.90
27306;DHT22;14792;50.886;6.468;2022-12-29T09:39:55;11.60;99.90
27306;DHT22;14792;50.886;6.468;2022-12-29T09:46:32;11.70;99.90
27306;DHT22;14792;50.886;6.468;2022-12-29T09:49:43;11.70;99.90
27306;DHT22;14792;50.886;6.468;2022-12-29T09:52:50;11.70;99.90
27306;DHT22;14792;50.886;6.468;2022-12-29T09:55:49;11.70;99.90
27306;DHT22;14792;50.886;6.468;2022-12-29T09:59:10;11.70;99.90
27306;DHT22;14792;50.886;6.468;2022-12-29T10:02:40;11.70;99.90
27306;DHT22;14792;50.886;6.468;2022-12-29T10:05:46;11.60;99.90
27306;DHT22;14792;50.886;6.468;2022-12-29T10:12:16;11.70;99.90
27306;DHT22;14792;50.886;6.468;2022-12-29T10:15:23;11.70;99.90
27306;DHT22;14792;50.886;6.468;2022-12-29T10:22:00;11.80;99.90
27306;DHT22;14792;50.886;6.468;2022-12-29T10:24:58;11.80;99.90
27306;DHT22;14792;50.886;6.468;2022-12-29T10:28:00;11.70;99.90
27306;DHT22;14792;50.886;6.468;2022-12-29T10:31:02;11.90;99.90
27306;DHT22;14792;50.886;6.468;2022-12-29T10:34:10;12.00;99.90
27306;DHT22;14792;50.886;6.468;2022-12-29T10:43:42;12.20;99.90
27306;DHT22;14792;50.886;6.468;2022-12-29T10:46:39;12.20;99.90
27306;DHT22;14792;50.886;6.468;2022-12-29T10:49:41;12.20;99.90
27306;DHT22;14792;50.886;6.468;2022-12-29T10:52:42;12.20;99.90
27306;DHT22;14792;50.886;6.468;2022-12-29T10:55:44;12.20;99.90
27306;DHT22;14792;50.886;6.468;2022-12-29T10:58:46;12.30;99.90
27306;DHT22;14792;50.886;6.468;2022-12-29T11:02:02;12.40;99.90
27306;DHT22;14792;50.886;6.468;2022-12-29T11:08:18;12.40;99.90
27306;DHT22;14792;50.886;6.468;2022-12-29T11:11:23;12.50;99.90
27306;DHT22;14792;50.886;6.468;2022-12-29T11:14:27;12.70;99.90
27306;DHT22;14792;50.886;6.468;2022-12-29T11:17:28;12.50;99.90
27306;DHT22;14792;50.886;6.468;2022-12-29T11:20:31;12.40;99.90
27306;DHT22;14792;50.886;6.468;2022-12-29T11:23:32;12.30;99.90
27306;DHT22;14792;50.886;6.468;2022-12-29T11:26:32;12.20;99.90
27306;DHT22;14792;50.886;6.468;2022-12-29T11:29:38;12.10;99.90
27306;DHT22;14792;50.886;6.468;2022-12-29T11:32:39;12.00;99.90
27306;DHT22;14792;50.886;6.468;2022-12-29T11:35:43;11.90;99.90
27306;DHT22;14792;50.886;6.468;2022-12-29T11:38:49;11.80;99.90
27306;DHT22;14792;50.886;6.468;2022-12-29T11:41:52;11.80;99.90
27306;DHT22;14792;50.886;6.468;2022-12-29T11:44:54;11.70;99.90
27306;DHT22;14792;50.886;6.468;2022-12-29T11:48:08;11.80;99.90
27306;DHT22;14792;50.886;6.468;2022-12-29T11:51:09;11.70;99.90
27306;DHT22;14792;50.886;6.468;2022-12-29T11:54:13;11.70;99.90
27306;DHT22;14792;50.886;6.468;2022-12-29T11:57:15;11.70;99.90
27306;DHT22;14792;50.886;6.468;2022-12-29T12:00:20;11.70;99.90
27306;DHT22;14792;50.886;6.468;2022-12-29T12:03:22;11.70;99.90
27306;DHT22;14792;50.886;6.468;2022-12-29T12:06:23;11.70;99.90
27306;DHT22;14792;50.886;6.468;2022-12-29T12:09:26;11.60;99.90
27306;DHT22;14792;50.886;6.468;2022-12-29T12:12:44;11.80;99.90
27306;DHT22;14792;50.886;6.468;2022-12-29T12:15:44;11.80;99.90
27306;DHT22;14792;50.886;6.468;2022-12-29T12:18:48;11.80;99.90
27306;DHT22;14792;50.886;6.468;2022-12-29T12:21:50;12.00;99.90
27306;DHT22;14792;50.886;6.468;2022-12-29T12:28:15;12.30;99.90
27306;DHT22;14792;50.886;6.468;2022-12-29T12:31:27;12.50;99.90
27306;DHT22;14792;50.886;6.468;2022-12-29T12:34:32;12.60;99.90
27306;DHT22;14792;50.886;6.468;2022-12-29T12:37:36;12.70;99.90
27306;DHT22;14792;50.886;6.468;2022-12-29T12:40:44;13.00;99.90
27306;DHT22;14792;50.886;6.468;2022-12-29T12:43:54;13.10;99.90
27306;DHT22;14792;50.886;6.468;2022-12-29T12:50:25;12.90;99.90
27306;DHT22;14792;50.886;6.468;2022-12-29T12:53:32;12.60;99.90
27306;DHT22;14792;50.886;6.468;2022-12-29T12:56:50;12.30;99.90
27306;DHT22;14792;50.886;6.468;2022-12-29T12:59:55;12.20;99.90
27306;DHT22;14792;50.886;6.468;2022-12-29T13:03:09;12.00;99.90
27306;DHT22;14792;50.886;6.468;2022-12-29T13:06:15;11.80;99.90
27306;DHT22;14792;50.886;6.468;2022-12-29T13:10:12;11.70;99.90
27306;DHT22;14792;50.886;6.468;2022-12-29T13:12:40;11.60;99.90
27306;DHT22;14792;50.886;6.468;2022-12-29T13:15:41;11.50;99.90
27306;DHT22;14792;50.886;6.468;2022-12-29T13:18:45;11.50;99.90
27306;DHT22;14792;50.886;6.468;2022-12-29T13:25:24;11.40;99.90
27306;DHT22;14792;50.886;6.468;2022-12-29T13:28:29;11.20;99.90
27306;DHT22;14792;50.886;6.468;2022-12-29T13:31:33;11.40;99.90
27306;DHT22;14792;50.886;6.468;2022-12-29T13:34:43;11.50;99.90
27306;DHT22;14792;50.886;6.468;2022-12-29T13:37:54;11.50;99.90
27306;DHT22;14792;50.886;6.468;2022-12-29T13:40:57;11.50;99.90
27306;DHT22;14792;50.886;6.468;2022-12-29T13:43:58;11.40;99.90
27306;DHT22;14792;50.886;6.468;2022-12-29T13:47:01;11.30;99.90
27306;DHT22;14792;50.886;6.468;2022-12-29T13:50:01;11.20;99.90
27306;DHT22;14792;50.886;6.468;2022-12-29T13:56:07;11.10;99.90
27306;DHT22;14792;50.886;6.468;2022-12-29T13:59:36;11.20;99.90
27306;DHT22;14792;50.886;6.468;2022-12-29T14:06:02;11.10;99.90
27306;DHT22;14792;50.886;6.468;2022-12-29T14:08:48;11.10;99.90
27306;DHT22;14792;50.886;6.468;2022-12-29T14:11:50;11.10;99.90
27306;DHT22;14792;50.886;6.468;2022-12-29T14:14:51;11.00;99.90
27306;DHT22;14792;50.886;6.468;2022-12-29T14:18:24;11.00;99.90
27306;DHT22;14792;50.886;6.468;2022-12-29T14:27:43;10.90;99.90
27306;DHT22;14792;50.886;6.468;2022-12-29T14:30:50;10.90;99.90
27306;DHT22;14792;50.886;6.468;2022-12-29T14:37:21;10.80;99.90
27306;DHT22;14792;50.886;6.468;2022-12-29T14:40:22;10.80;99.90
27306;DHT22;14792;50.886;6.468;2022-12-29T14:43:26;10.80;99.90
27306;DHT22;14792;50.886;6.468;2022-12-29T14:46:47;10.80;99.90
27306;DHT22;14792;50.886;6.468;2022-12-29T14:49:47;10.70;99.90
27306;DHT22;14792;50.886;6.468;2022-12-29T14:55:56;10.70;99.90
27306;DHT22;14792;50.886;6.468;2022-12-29T14:59:01;10.60;99.90
27306;DHT22;14792;50.886;6.468;2022-12-29T15:02:04;10.60;99.90
27306;DHT22;14792;50.886;6.468;2022-12-29T15:05:04;10.60;99.90
27306;DHT22;14792;50.886;6.468;2022-12-29T15:08:06;10.60;99.90
27306;DHT22;14792;50.886;6.468;2022-12-29T15:11:15;10.50;99.90
27306;DHT22;14792;50.886;6.468;2022-12-29T15:14:31;10.50;99.90
27306;DHT22;14792;50.886;6.468;2022-12-29T15:17:33;10.40;99.90
27306;DHT22;14792;50.886;6.468;2022-12-29T15:20:33;10.40;99.90
27306;DHT22;14792;50.886;6.468;2022-12-29T15:23:35;10.40;99.90
27306;DHT22;14792;50.886;6.468;2022-12-29T15:26:40;10.30;99.90
27306;DHT22;14792;50.886;6.468;2022-12-29T15:29:42;10.30;99.90
27306;DHT22;14792;50.886;6.468;2022-12-29T15:32:43;10.30;99.90
27306;DHT22;14792;50.886;6.468;2022-12-29T15:35:44;10.20;99.90
27306;DHT22;14792;50.886;6.468;2022-12-29T15:38:46;10.10;99.90
27306;DHT22;14792;50.886;6.468;2022-12-29T15:41:57;10.10;99.90
27306;DHT22;14792;50.886;6.468;2022-12-29T15:45:02;10.00;99.90
27306;DHT22;14792;50.886;6.468;2022-12-29T15:48:02;10.00;99.90
27306;DHT22;14792;50.886;6.468;2022-12-29T15:51:03;9.90;99.90
27306;DHT22;14792;50.886;6.468;2022-12-29T15:54:05;9.80;99.90
27306;DHT22;14792;50.886;6.468;2022-12-29T15:57:10;9.70;99.90
27306;DHT22;14792;50.886;6.468;2022-12-29T16:00:24;9.70;99.90
27306;DHT22;14792;50.886;6.468;2022-12-29T16:03:22;9.70;99.90
27306;DHT22;14792;50.886;6.468;2022-12-29T16:12:35;9.50;99.90
27306;DHT22;14792;50.886;6.468;2022-12-29T16:15:36;9.50;99.90
27306;DHT22;14792;50.886;6.468;2022-12-29T16:18:38;9.40;99.90
27306;DHT22;14792;50.886;6.468;2022-12-29T16:21:40;9.40;99.90
27306;DHT22;14792;50.886;6.468;2022-12-29T16:24:41;9.40;99.90
27306;DHT22;14792;50.886;6.468;2022-12-29T16:27:43;9.40;99.90
27306;DHT22;14792;50.886;6.468;2022-12-29T16:30:44;9.30;99.90
27306;DHT22;14792;50.886;6.468;2022-12-29T16:33:47;9.30;99.90
27306;DHT22;14792;50.886;6.468;2022-12-29T16:37:00;9.20;99.90
27306;DHT22;14792;50.886;6.468;2022-12-29T16:40:27;9.20;99.90
27306;DHT22;14792;50.886;6.468;2022-12-29T16:43:32;9.20;99.90
27306;DHT22;14792;50.886;6.468;2022-12-29T16:46:33;9.20;99.90
27306;DHT22;14792;50.886;6.468;2022-12-29T16:49:34;9.20;99.90
27306;DHT22;14792;50.886;6.468;2022-12-29T16:52:36;9.20;99.90
27306;DHT22;14792;50.886;6.468;2022-12-29T16:55:37;9.20;99.90
27306;DHT22;14792;50.886;6.468;2022-12-29T16:58:39;9.20;99.90
27306;DHT22;14792;50.886;6.468;2022-12-29T17:01:41;9.10;99.90
27306;DHT22;14792;50.886;6.468;2022-12-29T17:04:42;9.20;99.90
27306;DHT22;14792;50.886;6.468;2022-12-29T17:07:44;9.20;99.90
27306;DHT22;14792;50.886;6.468;2022-12-29T17:10:45;9.30;99.90
27306;DHT22;14792;50.886;6.468;2022-12-29T17:14:05;9.20;99.90
27306;DHT22;14792;50.886;6.468;2022-12-29T17:17:58;9.10;99.90
27306;DHT22;14792;50.886;6.468;2022-12-29T17:20:17;9.10;99.90
27306;DHT22;14792;50.886;6.468;2022-12-29T17:23:18;9.10;99.90
27306;DHT22;14792;50.886;6.468;2022-12-29T17:26:19;9.00;99.90
27306;DHT22;14792;50.886;6.468;2022-12-29T17:29:29;9.00;99.90
27306;DHT22;14792;50.886;6.468;2022-12-29T17:32:29;8.90;99.90
27306;DHT22;14792;50.886;6.468;2022-12-29T17:35:30;8.90;99.90
27306;DHT22;14792;50.886;6.468;2022-12-29T17:38:34;8.90;99.90
27306;DHT22;14792;50.886;6.468;2022-12-29T17:41:33;8.90;99.90
27306;DHT22;14792;50.886;6.468;2022-12-29T17:44:35;8.90;99.90
27306;DHT22;14792;50.886;6.468;2022-12-29T17:47:37;8.90;99.90
27306;DHT22;14792;50.886;6.468;2022-12-29T17:50:38;9.00;99.90
27306;DHT22;14792;50.886;6.468;2022-12-29T17:53:40;9.00;99.90
27306;DHT22;14792;50.886;6.468;2022-12-29T17:56:41;9.10;99.90
27306;DHT22;14792;50.886;6.468;2022-12-29T17:59:43;9.00;99.90
27306;DHT22;14792;50.886;6.468;2022-12-29T18:02:45;8.80;99.90
27306;DHT22;14792;50.886;6.468;2022-12-29T18:05:46;8.60;99.90
27306;DHT22;14792;50.886;6.468;2022-12-29T18:08:48;8.50;99.90
27306;DHT22;14792;50.886;6.468;2022-12-29T18:11:49;8.40;99.90
27306;DHT22;14792;50.886;6.468;2022-12-29T18:14:51;8.40;99.90
27306;DHT22;14792;50.886;6.468;2022-12-29T18:18:05;8.40;99.90
27306;DHT22;14792;50.886;6.468;2022-12-29T18:21:03;8.40;99.90
27306;DHT22;14792;50.886;6.468;2022-12-29T18:24:04;8.30;99.90
27306;DHT22;14792;50.886;6.468;2022-12-29T18:27:12;8.20;99.90
27306;DHT22;14792;50.886;6.468;2022-12-29T18:30:13;8.20;99.90
27306;DHT22;14792;50.886;6.468;2022-12-29T18:33:15;8.20;99.90
27306;DHT22;14792;50.886;6.468;2022-12-29T18:36:16;8.20;99.90
27306;DHT22;14792;50.886;6.468;2022-12-29T18:39:18;8.20;99.90
27306;DHT22;14792;50.886;6.468;2022-12-29T18:42:19;8.20;99.90
27306;DHT22;14792;50.886;6.468;2022-12-29T18:45:22;8.30;99.90
27306;DHT22;14792;50.886;6.468;2022-12-29T18:48:22;8.40;99.90
27306;DHT22;14792;50.886;6.468;2022-12-29T18:51:24;8.40;99.90
27306;DHT22;14792;50.886;6.468;2022-12-29T18:54:28;8.30;99.90
27306;DHT22;14792;50.886;6.468;2022-12-29T18:57:27;8.20;99.90
27306;DHT22;14792;50.886;6.468;2022-12-29T19:00:29;8.10;99.90
27306;DHT22;14792;50.886;6.468;2022-12-29T19:03:31;8.10;99.90
27306;DHT22;14792;50.886;6.468;2022-12-29T19:06:32;8.00;99.90
27306;DHT22;14792;50.886;6.468;2022-12-29T19:09:34;8.00;99.90
27306;DHT22;14792;50.886;6.468;2022-12-29T19:12:35;8.00;99.90
27306;DHT22;14792;50.886;6.468;2022-12-29T19:15:37;7.90;99.90
27306;DHT22;14792;50.886;6.468;2022-12-29T19:18:38;7.90;99.90
27306;DHT22;14792;50.886;6.468;2022-12-29T19:21:40;7.90;99.90
27306;DHT22;14792;50.886;6.468;2022-12-29T19:24:42;7.80;99.90
27306;DHT22;14792;50.886;6.468;2022-12-29T19:27:43;7.80;99.90
27306;DHT22;14792;50.886;6.468;2022-12-29T19:30:45;7.80;99.90
27306;DHT22;14792;50.886;6.468;2022-12-29T19:33:46;7.70;99.90
27306;DHT22;14792;50.886;6.468;2022-12-29T19:36:48;7.70;99.90
27306;DHT22;14792;50.886;6.468;2022-12-29T19:39:50;7.70;99.90
27306;DHT22;14792;50.886;6.468;2022-12-29T19:42:51;7.70;99.90
27306;DHT22;14792;50.886;6.468;2022-12-29T19:45:53;7.60;99.90
27306;DHT22;14792;50.886;6.468;2022-12-29T19:48:55;7.60;99.90
27306;DHT22;14792;50.886;6.468;2022-12-29T19:51:59;7.60;99.90
27306;DHT22;14792;50.886;6.468;2022-12-29T19:55:01;7.50;99.90
27306;DHT22;14792;50.886;6.468;2022-12-29T19:58:02;7.50;99.90
27306;DHT22;14792;50.886;6.468;2022-12-29T20:01:05;7.50;99.90
27306;DHT22;14792;50.886;6.468;2022-12-29T20:04:05;7.50;99.90
27306;DHT22;14792;50.886;6.468;2022-12-29T20:07:07;7.60;99.90
27306;DHT22;14792;50.886;6.468;2022-12-29T20:10:09;7.60;99.90
27306;DHT22;14792;50.886;6.468;2022-12-29T20:13:10;7.50;99.90
27306;DHT22;14792;50.886;6.468;2022-12-29T20:16:13;7.40;99.90
27306;DHT22;14792;50.886;6.468;2022-12-29T20:19:13;7.40;99.90
27306;DHT22;14792;50.886;6.468;2022-12-29T20:22:15;7.40;99.90
27306;DHT22;14792;50.886;6.468;2022-12-29T20:25:16;7.40;99.90
27306;DHT22;14792;50.886;6.468;2022-12-29T20:28:18;7.50;99.90
27306;DHT22;14792;50.886;6.468;2022-12-29T20:31:24;7.50;99.90
27306;DHT22;14792;50.886;6.468;2022-12-29T20:34:21;7.40;99.90
27306;DHT22;14792;50.886;6.468;2022-12-29T20:37:23;7.30;99.90
27306;DHT22;14792;50.886;6.468;2022-12-29T20:40:26;7.30;99.90
27306;DHT22;14792;50.886;6.468;2022-12-29T20:43:27;7.40;99.90